createdAt,value
2022-08-25T00:00:48.507Z,79.47
2022-08-25T00:01:48.462Z,79.30
2022-08-25T00:02:56.123Z,79.61
2022-08-25T00:03:49.439Z,79.41
2022-08-25T00:04:53.691Z,79.91
2022-08-25T00:05:49.496Z,80.01
2022-08-25T00:06:48.418Z,80.11
2022-08-25T00:07:48.406Z,80.31
2022-08-25T00:08:48.407Z,80.31
2022-08-25T00:09:48.385Z,80.11
2022-08-25T00:11:02.960Z,79.91
2022-08-25T00:11:49.368Z,79.61
2022-08-25T00:12:48.402Z,79.71
2022-08-25T00:13:48.349Z,80.35
2022-08-25T00:14:48.359Z,80.31
2022-08-25T00:15:48.403Z,80.01
2022-08-25T00:16:48.345Z,79.61
2022-08-25T00:17:48.354Z,79.71
2022-08-25T00:18:48.336Z,80.31
2022-08-25T00:19:48.303Z,79.41
2022-08-25T00:20:49.203Z,80.41
2022-08-25T00:21:48.285Z,80.92
2022-08-25T00:22:48.293Z,80.51
2022-08-25T00:23:48.314Z,79.81
2022-08-25T00:24:48.299Z,79.97
2022-08-25T00:25:48.254Z,79.87
2022-08-25T00:26:48.241Z,79.47
2022-08-25T00:27:48.241Z,79.27
2022-08-25T00:28:48.221Z,79.27
2022-08-25T00:29:48.239Z,79.27
2022-08-25T00:30:48.307Z,78.96
2022-08-25T00:31:48.212Z,78.96
2022-08-25T00:32:54.991Z,79.67
2022-08-25T00:33:49.199Z,79.27
2022-08-25T00:34:48.208Z,80.41
2022-08-25T00:35:48.173Z,80.27
2022-08-25T00:36:48.175Z,80.72
2022-08-25T00:37:48.211Z,80.31
2022-08-25T00:38:48.146Z,80.41
2022-08-25T00:39:48.172Z,81.02
2022-08-25T00:40:48.156Z,80.82
2022-08-25T00:41:48.125Z,81.05
2022-08-25T00:42:48.109Z,80.72
2022-08-25T00:43:48.113Z,80.92
2022-08-25T00:44:48.093Z,81.22
2022-08-25T00:45:48.080Z,81.36
2022-08-25T00:46:48.088Z,81.60
2022-08-25T00:47:48.094Z,82.10
2022-08-25T00:48:48.067Z,82.10
2022-08-25T00:49:48.063Z,82.75
2022-08-25T00:50:48.044Z,82.55
2022-08-25T00:51:48.036Z,82.95
2022-08-25T00:52:48.047Z,82.55
2022-08-25T00:53:48.018Z,82.35
2022-08-25T00:54:48.007Z,83.26
2022-08-25T00:55:47.995Z,83.46
2022-08-25T00:56:47.987Z,82.75
2022-08-25T00:57:48.044Z,83.15
2022-08-25T00:58:47.975Z,83.46
2022-08-25T00:59:48.002Z,83.36
2022-08-25T01:00:47.951Z,83.36
2022-08-25T01:01:47.992Z,83.76
2022-08-25T01:02:48.022Z,83.15
2022-08-25T01:03:47.933Z,83.26
2022-08-25T01:04:47.932Z,83.36
2022-08-25T01:05:47.943Z,83.36
2022-08-25T01:06:47.907Z,83.36
2022-08-25T01:07:47.888Z,83.36
2022-08-25T01:08:47.888Z,83.46
2022-08-25T01:09:47.897Z,83.26
2022-08-25T01:10:47.870Z,83.36
2022-08-25T01:11:47.885Z,83.80
2022-08-25T01:12:47.850Z,83.90
2022-08-25T01:13:47.854Z,84.31
2022-08-25T01:14:47.859Z,84.41
2022-08-25T01:15:47.967Z,84.71
2022-08-25T01:16:51.153Z,85.22
2022-08-25T01:17:48.842Z,84.61
2022-08-25T01:18:47.810Z,85.16
2022-08-25T01:19:47.805Z,84.75
2022-08-25T01:20:47.792Z,84.31
2022-08-25T01:21:47.815Z,84.31
2022-08-25T01:22:50.910Z,84.25
2022-08-25T01:23:48.770Z,84.61
2022-08-25T01:24:47.752Z,84.41
2022-08-25T01:25:47.762Z,84.65
2022-08-25T01:26:47.737Z,84.45
2022-08-25T01:27:47.773Z,84.25
2022-08-25T01:28:47.709Z,84.45
2022-08-25T01:29:47.721Z,85.16
2022-08-25T01:30:47.749Z,84.65
2022-08-25T01:31:47.700Z,85.16
2022-08-25T01:32:47.710Z,85.46
2022-08-25T01:33:47.723Z,85.16
2022-08-25T01:34:47.683Z,84.95
2022-08-25T01:35:47.671Z,85.90
2022-08-25T01:36:47.656Z,86.00
2022-08-25T01:37:47.642Z,86.21
2022-08-25T01:38:47.762Z,85.70
2022-08-25T01:39:47.711Z,86.10
2022-08-25T01:40:47.666Z,86.31
2022-08-25T01:41:47.609Z,86.61
2022-08-25T01:42:47.623Z,86.51
2022-08-25T01:43:47.969Z,86.71
2022-08-25T01:44:47.616Z,86.91
2022-08-25T01:45:47.633Z,86.82
2022-08-25T01:46:47.587Z,86.31
2022-08-25T01:47:47.569Z,86.61
2022-08-25T01:48:47.550Z,86.91
2022-08-25T01:49:47.575Z,85.96
2022-08-25T01:50:47.709Z,86.10
2022-08-25T01:51:47.530Z,86.31
2022-08-25T01:52:47.551Z,86.61
2022-08-25T01:53:47.528Z,86.47
2022-08-25T01:54:47.508Z,86.47
2022-08-25T01:55:47.498Z,85.86
2022-08-25T01:56:47.486Z,86.07
2022-08-25T01:57:47.505Z,86.27
2022-08-25T01:58:47.527Z,86.87
2022-08-25T01:59:47.465Z,86.71
2022-08-25T02:00:47.448Z,86.91
2022-08-25T02:01:47.472Z,86.91
2022-08-25T02:02:47.496Z,87.02
2022-08-25T02:03:48.089Z,87.52
2022-08-25T02:04:47.427Z,87.32
2022-08-25T02:05:47.950Z,87.52
2022-08-25T02:06:47.402Z,86.91
2022-08-25T02:07:47.388Z,86.51
2022-08-25T02:08:47.500Z,86.00
2022-08-25T02:09:47.401Z,86.91
2022-08-25T02:10:47.377Z,86.91
2022-08-25T02:11:47.384Z,86.71
2022-08-25T02:12:47.353Z,87.93
2022-08-25T02:13:47.350Z,87.52
2022-08-25T02:14:47.413Z,88.13
2022-08-25T02:15:47.339Z,88.02
2022-08-25T02:16:47.507Z,88.13
2022-08-25T02:17:47.303Z,88.57
2022-08-25T02:18:47.289Z,88.27
2022-08-25T02:19:47.300Z,88.78
2022-08-25T02:20:47.301Z,88.57
2022-08-25T02:21:47.283Z,88.48
2022-08-25T02:22:53.095Z,88.48
2022-08-25T02:23:48.268Z,88.68
2022-08-25T02:24:47.256Z,88.88
2022-08-25T02:25:47.245Z,88.78
2022-08-25T02:26:47.264Z,88.68
2022-08-25T02:27:47.239Z,89.02
2022-08-25T02:28:47.254Z,88.92
2022-08-25T02:29:47.231Z,88.72
2022-08-25T02:30:47.249Z,89.12
2022-08-25T02:31:47.304Z,88.78
2022-08-25T02:32:47.235Z,88.57
2022-08-25T02:33:47.183Z,88.72
2022-08-25T02:34:47.183Z,89.02
2022-08-25T02:35:47.168Z,89.23
2022-08-25T02:36:47.149Z,88.78
2022-08-25T02:37:47.147Z,88.72
2022-08-25T02:38:47.152Z,88.82
2022-08-25T02:39:47.144Z,89.32
2022-08-25T02:40:47.133Z,89.02
2022-08-25T02:41:47.131Z,90.54
2022-08-25T02:42:47.177Z,89.87
2022-08-25T02:43:47.132Z,90.18
2022-08-25T02:44:47.107Z,89.87
2022-08-25T02:45:47.190Z,89.87
2022-08-25T02:46:47.094Z,89.87
2022-08-25T02:47:47.058Z,90.08
2022-08-25T02:48:47.049Z,89.94
2022-08-25T02:49:47.067Z,90.69
2022-08-25T02:50:47.044Z,90.08
2022-08-25T02:51:47.030Z,90.18
2022-08-25T02:52:47.003Z,90.08
2022-08-25T02:53:47.007Z,90.38
2022-08-25T02:54:46.993Z,90.28
2022-08-25T02:55:47.021Z,89.87
2022-08-25T02:56:46.985Z,90.18
2022-08-25T02:57:46.999Z,90.48
2022-08-25T02:58:46.967Z,90.08
2022-08-25T02:59:46.981Z,90.38
2022-08-25T03:00:46.965Z,90.18
2022-08-25T03:01:46.951Z,90.48
2022-08-25T03:02:46.929Z,90.69
2022-08-25T03:03:46.968Z,90.79
2022-08-25T03:04:46.923Z,90.38
2022-08-25T03:05:46.933Z,90.58
2022-08-25T03:06:46.897Z,90.38
2022-08-25T03:07:46.894Z,90.34
2022-08-25T03:08:46.888Z,89.12
2022-08-25T03:09:46.867Z,89.23
2022-08-25T03:10:47.450Z,88.82
2022-08-25T03:11:46.875Z,88.82
2022-08-25T03:12:46.848Z,88.72
2022-08-25T03:13:46.834Z,88.72
2022-08-25T03:14:46.839Z,88.98
2022-08-25T03:15:46.831Z,88.82
2022-08-25T03:16:47.038Z,88.68
2022-08-25T03:17:46.824Z,89.02
2022-08-25T03:18:46.796Z,90.60
2022-08-25T03:19:46.797Z,90.30
2022-08-25T03:20:46.768Z,89.18
2022-08-25T03:21:46.769Z,88.98
2022-08-25T03:22:46.789Z,89.48
2022-08-25T03:23:46.755Z,90.14
2022-08-25T03:24:46.747Z,90.20
2022-08-25T03:25:46.734Z,90.20
2022-08-25T03:26:46.760Z,90.64
2022-08-25T03:27:46.707Z,91.25
2022-08-25T03:28:46.723Z,90.95
2022-08-25T03:29:46.708Z,91.05
2022-08-25T03:30:46.678Z,91.25
2022-08-25T03:31:47.746Z,91.05
2022-08-25T03:32:46.675Z,90.54
2022-08-25T03:33:46.664Z,90.24
2022-08-25T03:34:46.752Z,91.05
2022-08-25T03:35:46.679Z,90.34
2022-08-25T03:36:46.678Z,90.34
2022-08-25T03:37:46.686Z,90.09
2022-08-25T03:38:46.653Z,89.89
2022-08-25T03:39:46.664Z,90.50
2022-08-25T03:40:46.603Z,89.32
2022-08-25T03:41:46.591Z,88.88
2022-08-25T03:42:46.576Z,90.20
2022-08-25T03:43:47.606Z,90.34
2022-08-25T03:44:46.585Z,90.95
2022-08-25T03:45:46.582Z,91.15
2022-08-25T03:46:46.549Z,92.00
2022-08-25T03:47:46.523Z,92.10
2022-08-25T03:48:46.538Z,92.31
2022-08-25T03:49:46.502Z,92.41
2022-08-25T03:50:50.547Z,92.41
2022-08-25T03:51:47.501Z,92.45
2022-08-25T03:52:46.493Z,92.31
2022-08-25T03:53:46.490Z,92.55
2022-08-25T03:54:46.507Z,92.14
2022-08-25T03:55:46.475Z,92.21
2022-08-25T03:56:46.480Z,92.25
2022-08-25T03:57:46.442Z,92.25
2022-08-25T03:58:46.434Z,92.86
2022-08-25T03:59:46.460Z,93.26
2022-08-25T04:00:46.464Z,93.51
2022-08-25T04:01:48.439Z,93.67
2022-08-25T04:02:48.200Z,94.53
2022-08-25T04:03:46.384Z,94.42
2022-08-25T04:04:46.383Z,94.53
2022-08-25T04:05:46.376Z,94.62
2022-08-25T04:06:46.374Z,94.32
2022-08-25T04:07:46.352Z,94.73
2022-08-25T04:08:46.382Z,94.57
2022-08-25T04:09:46.348Z,94.98
2022-08-25T04:10:46.331Z,94.87
2022-08-25T04:11:46.325Z,94.62
2022-08-25T04:12:46.311Z,94.62
2022-08-25T04:13:46.312Z,94.93
2022-08-25T04:14:46.323Z,94.93
2022-08-25T04:15:46.292Z,94.32
2022-08-25T04:16:46.353Z,94.78
2022-08-25T04:17:46.262Z,94.78
2022-08-25T04:18:46.323Z,94.78
2022-08-25T04:19:46.263Z,94.27
2022-08-25T04:20:46.998Z,94.58
2022-08-25T04:21:46.228Z,93.97
2022-08-25T04:22:46.240Z,93.97
2022-08-25T04:23:46.216Z,93.81
2022-08-25T04:24:46.194Z,94.62
2022-08-25T04:25:46.361Z,94.73
2022-08-25T04:26:46.196Z,95.03
2022-08-25T04:27:46.167Z,95.34
2022-08-25T04:28:46.181Z,95.43
2022-08-25T04:29:46.187Z,95.13
2022-08-25T04:30:50.253Z,95.03
2022-08-25T04:31:47.809Z,95.03
2022-08-25T04:32:46.130Z,95.23
2022-08-25T04:33:46.112Z,94.98
2022-08-25T04:34:46.116Z,95.28
2022-08-25T04:35:46.125Z,94.93
2022-08-25T04:36:46.095Z,95.34
2022-08-25T04:37:47.101Z,94.93
2022-08-25T04:38:46.077Z,94.98
2022-08-25T04:39:46.098Z,95.13
2022-08-25T04:40:46.047Z,94.42
2022-08-25T04:41:46.059Z,94.67
2022-08-25T04:42:47.258Z,94.42
2022-08-25T04:43:46.022Z,94.53
2022-08-25T04:44:46.016Z,94.53
2022-08-25T04:45:46.698Z,94.93
2022-08-25T04:46:46.009Z,94.22
2022-08-25T04:47:46.024Z,94.32
2022-08-25T04:48:46.000Z,93.81
2022-08-25T04:49:45.999Z,93.81
2022-08-25T04:50:46.023Z,93.26
2022-08-25T04:51:45.980Z,93.46
2022-08-25T04:52:45.955Z,93.37
2022-08-25T04:53:45.960Z,93.21
2022-08-25T04:54:45.935Z,93.46
2022-08-25T04:55:45.926Z,93.37
2022-08-25T04:56:45.919Z,93.30
2022-08-25T04:57:45.914Z,93.57
2022-08-25T04:58:45.904Z,92.86
2022-08-25T04:59:45.905Z,93.46
2022-08-25T05:00:45.943Z,93.06
2022-08-25T05:01:45.910Z,93.26
2022-08-25T05:02:45.865Z,92.96
2022-08-25T05:03:45.944Z,93.16
2022-08-25T05:04:45.916Z,93.16
2022-08-25T05:05:45.840Z,92.96
2022-08-25T05:06:45.856Z,92.71
2022-08-25T05:07:45.834Z,92.31
2022-08-25T05:08:46.280Z,92.16
2022-08-25T05:09:45.819Z,91.05
2022-08-25T05:10:45.828Z,92.21
2022-08-25T05:11:45.778Z,90.95
2022-08-25T05:12:45.796Z,91.25
2022-08-25T05:13:51.538Z,91.35
2022-08-25T05:14:46.753Z,90.60
2022-08-25T05:15:45.999Z,89.99
2022-08-25T05:16:45.771Z,88.59
2022-08-25T05:17:45.746Z,87.34
2022-08-25T05:18:45.739Z,86.19
2022-08-25T05:19:45.714Z,85.68
2022-08-25T05:20:45.731Z,84.69
2022-08-25T05:21:45.696Z,83.14
2022-08-25T05:22:45.716Z,81.15
2022-08-25T05:23:45.706Z,81.15
2022-08-25T05:24:45.678Z,80.00
2022-08-25T05:25:45.725Z,81.04
2022-08-25T05:26:45.663Z,80.64
2022-08-25T05:27:45.640Z,80.84
2022-08-25T05:28:45.637Z,81.55
2022-08-25T05:29:45.678Z,81.15
2022-08-25T05:30:45.655Z,79.29
2022-08-25T05:31:50.045Z,81.59
2022-08-25T05:32:45.607Z,82.59
2022-08-25T05:33:45.606Z,81.75
2022-08-25T05:34:45.595Z,81.24
2022-08-25T05:35:45.682Z,80.70
2022-08-25T05:36:45.593Z,81.30
2022-08-25T05:37:45.556Z,79.96
2022-08-25T05:38:45.565Z,79.22
2022-08-25T05:39:45.608Z,79.25
2022-08-25T05:40:45.532Z,78.38
2022-08-25T05:41:45.559Z,78.31
2022-08-25T05:42:45.524Z,79.62
2022-08-25T05:43:45.536Z,78.91
2022-08-25T05:44:45.503Z,79.32
2022-08-25T05:45:45.574Z,78.41
2022-08-25T05:46:45.501Z,78.38
2022-08-25T05:47:45.482Z,77.56
2022-08-25T05:48:45.471Z,73.87
2022-08-25T05:49:45.470Z,73.13
2022-08-25T05:50:45.442Z,71.86
2022-08-25T05:51:45.514Z,70.03
2022-08-25T05:52:54.690Z,70.66
2022-08-25T05:53:45.411Z,70.53
2022-08-25T05:54:45.460Z,70.76
2022-08-25T05:55:45.415Z,70.32
2022-08-25T05:56:45.437Z,70.36
2022-08-25T05:57:45.433Z,71.09
2022-08-25T05:58:45.406Z,72.00
2022-08-25T05:59:45.381Z,71.66
2022-08-25T06:00:45.430Z,70.03
2022-08-25T06:01:45.513Z,69.19
2022-08-25T06:02:45.351Z,68.79
2022-08-25T06:03:45.418Z,70.12
2022-08-25T06:04:45.327Z,69.93
2022-08-25T06:05:45.318Z,69.79
2022-08-25T06:06:45.322Z,69.06
2022-08-25T06:07:45.297Z,68.89
2022-08-25T06:08:45.290Z,68.26
2022-08-25T06:09:45.306Z,69.29
2022-08-25T06:10:45.285Z,68.96
2022-08-25T06:11:45.335Z,70.12
2022-08-25T06:12:45.291Z,70.32
2022-08-25T06:13:45.256Z,69.19
2022-08-25T06:14:45.243Z,70.53
2022-08-25T06:15:45.255Z,70.66
2022-08-25T06:16:45.265Z,72.20
2022-08-25T06:17:45.212Z,71.96
2022-08-25T06:18:45.226Z,71.77
2022-08-25T06:19:45.218Z,69.99
2022-08-25T06:20:45.243Z,69.06
2022-08-25T06:21:45.191Z,67.72
2022-08-25T06:22:45.198Z,66.59
2022-08-25T06:23:45.176Z,66.79
2022-08-25T06:24:45.208Z,65.96
2022-08-25T06:25:45.158Z,66.26
2022-08-25T06:26:45.171Z,66.06
2022-08-25T06:27:45.158Z,65.20
2022-08-25T06:28:45.135Z,65.34
2022-08-25T06:29:45.124Z,63.34
2022-08-25T06:30:45.715Z,64.67
2022-08-25T06:31:45.142Z,62.59
2022-08-25T06:32:45.116Z,63.87
2022-08-25T06:33:45.087Z,63.74
2022-08-25T06:34:45.097Z,61.76
2022-08-25T06:35:45.075Z,62.51
2022-08-25T06:36:45.071Z,63.21
2022-08-25T06:37:45.066Z,62.61
2022-08-25T06:38:45.074Z,63.24
2022-08-25T06:39:45.092Z,64.57
2022-08-25T06:40:45.047Z,62.51
2022-08-25T06:41:45.021Z,65.67
2022-08-25T06:42:45.031Z,63.91
2022-08-25T06:43:48.950Z,61.63
2022-08-25T06:44:46.020Z,61.23
2022-08-25T06:45:44.985Z,64.80
2022-08-25T06:46:45.009Z,65.60
2022-08-25T06:47:45.489Z,65.50
2022-08-25T06:48:45.024Z,65.47
2022-08-25T06:49:44.973Z,65.90
2022-08-25T06:50:44.957Z,66.09
2022-08-25T06:51:44.944Z,66.50
2022-08-25T06:52:44.931Z,64.94
2022-08-25T06:53:44.912Z,62.95
2022-08-25T06:54:44.914Z,62.95
2022-08-25T06:55:44.963Z,61.60
2022-08-25T06:56:44.939Z,60.25
2022-08-25T06:57:44.929Z,60.77
2022-08-25T06:58:44.867Z,61.00
2022-08-25T06:59:44.857Z,61.83
2022-08-25T07:00:44.899Z,63.78
2022-08-25T07:01:45.004Z,62.05
2022-08-25T07:02:44.865Z,62.75
2022-08-25T07:03:44.824Z,63.18
2022-08-25T07:04:44.837Z,62.49
2022-08-25T07:05:44.828Z,61.24
2022-08-25T07:06:44.825Z,60.35
2022-08-25T07:07:44.831Z,59.42
2022-08-25T07:08:44.799Z,60.22
2022-08-25T07:09:44.821Z,59.05
2022-08-25T07:10:47.978Z,60.77
2022-08-25T07:11:44.788Z,61.04
2022-08-25T07:12:44.767Z,60.55
2022-08-25T07:13:44.807Z,60.61
2022-08-25T07:14:58.075Z,59.69
2022-08-25T07:15:46.740Z,61.14
2022-08-25T07:16:49.163Z,60.90
2022-08-25T07:17:44.734Z,60.97
2022-08-25T07:18:44.713Z,61.50
2022-08-25T07:19:44.751Z,60.74
2022-08-25T07:20:44.695Z,60.74
2022-08-25T07:21:44.697Z,61.04
2022-08-25T07:22:44.693Z,60.94
2022-08-25T07:23:44.673Z,59.17
2022-08-25T07:24:44.683Z,60.44
2022-08-25T07:25:44.694Z,62.52
2022-08-25T07:26:44.667Z,61.31
2022-08-25T07:27:44.638Z,60.06
2022-08-25T07:28:47.254Z,59.79
2022-08-25T07:29:44.681Z,60.64
2022-08-25T07:30:44.617Z,61.83
2022-08-25T07:31:45.710Z,60.91
2022-08-25T07:32:44.617Z,61.64
2022-08-25T07:33:44.604Z,60.82
2022-08-25T07:34:44.598Z,60.28
2022-08-25T07:35:45.605Z,60.55
2022-08-25T07:36:44.587Z,60.36
2022-08-25T07:37:49.124Z,58.51
2022-08-25T07:38:45.633Z,59.36
2022-08-25T07:39:44.667Z,59.01
2022-08-25T07:40:44.530Z,58.78
2022-08-25T07:41:45.548Z,56.77
2022-08-25T07:42:44.520Z,56.23
2022-08-25T07:43:44.695Z,56.28
2022-08-25T07:44:45.272Z,59.27
2022-08-25T07:45:49.458Z,60.58
2022-08-25T07:46:45.714Z,60.39
2022-08-25T07:47:44.500Z,60.58
2022-08-25T07:48:44.964Z,60.23
2022-08-25T07:49:45.535Z,59.01
2022-08-25T07:50:44.456Z,57.20
2022-08-25T07:52:03.708Z,60.49
2022-08-25T07:52:45.451Z,60.56
2022-08-25T07:53:45.456Z,60.46
2022-08-25T07:54:44.460Z,58.29
2022-08-25T07:55:45.082Z,58.91
2022-08-25T07:56:44.421Z,58.88
2022-08-25T07:57:44.468Z,55.83
2022-08-25T07:58:44.394Z,56.20
2022-08-25T07:59:44.396Z,56.65
2022-08-25T08:00:44.400Z,56.02
2022-08-25T08:01:44.522Z,58.61
2022-08-25T08:02:44.398Z,59.14
2022-08-25T08:03:50.500Z,61.61
2022-08-25T08:04:45.365Z,62.40
2022-08-25T08:05:44.352Z,60.43
2022-08-25T08:06:44.373Z,60.23
2022-08-25T08:07:44.414Z,59.18
2022-08-25T08:08:44.366Z,58.69
2022-08-25T08:09:44.340Z,57.46
2022-08-25T08:11:05.414Z,56.72
2022-08-25T08:11:53.510Z,56.20
2022-08-25T08:12:45.303Z,54.76
2022-08-25T08:13:44.290Z,55.90
2022-08-25T08:14:44.834Z,56.13
2022-08-25T08:15:44.315Z,58.88
2022-08-25T08:16:44.280Z,58.69
2022-08-25T08:17:44.508Z,58.75
2022-08-25T08:18:44.245Z,57.64
2022-08-25T08:19:45.374Z,58.30
2022-08-25T08:20:44.244Z,57.18
2022-08-25T08:21:44.221Z,55.60
2022-08-25T08:22:44.262Z,56.59
2022-08-25T08:23:44.278Z,56.55
2022-08-25T08:24:54.767Z,56.32
2022-08-25T08:25:45.200Z,59.21
2022-08-25T08:26:58.180Z,59.21
2022-08-25T08:27:45.469Z,58.69
2022-08-25T08:28:44.269Z,59.61
2022-08-25T08:29:45.166Z,57.04
2022-08-25T08:30:53.014Z,56.10
2022-08-25T08:31:48.671Z,54.79
2022-08-25T08:33:08.810Z,54.02
2022-08-25T08:33:45.200Z,56.17
2022-08-25T08:34:44.315Z,56.17
2022-08-25T08:35:44.141Z,56.00
2022-08-25T08:36:45.274Z,55.77
2022-08-25T08:37:44.118Z,54.73
2022-08-25T08:38:44.111Z,54.04
2022-08-25T08:39:44.081Z,54.02
2022-08-25T08:40:44.095Z,53.39
2022-08-25T08:42:11.653Z,52.48
2022-08-25T08:42:46.740Z,53.12
2022-08-25T08:43:44.065Z,52.41
2022-08-25T08:44:44.050Z,55.22
2022-08-25T08:45:44.250Z,57.41
2022-08-25T08:46:44.116Z,57.54
2022-08-25T08:47:44.057Z,56.49
2022-08-25T08:48:44.177Z,55.58
2022-08-25T08:49:44.012Z,55.94
2022-08-25T08:50:44.011Z,56.24
2022-08-25T08:51:44.018Z,56.31
2022-08-25T08:52:43.998Z,56.57
2022-08-25T08:53:44.015Z,55.26
2022-08-25T08:54:43.963Z,55.33
2022-08-25T08:55:43.970Z,55.28
2022-08-25T08:56:48.004Z,56.42
2022-08-25T08:57:44.836Z,56.57
2022-08-25T08:58:43.936Z,57.40
2022-08-25T08:59:44.057Z,57.24
2022-08-25T09:00:46.766Z,57.74
2022-08-25T09:01:44.907Z,58.01
2022-08-25T09:02:51.902Z,55.58
2022-08-25T09:03:44.912Z,54.17
2022-08-25T09:04:43.876Z,56.24
2022-08-25T09:05:47.157Z,53.67
2022-08-25T09:06:44.274Z,55.04
2022-08-25T09:07:43.889Z,56.38
2022-08-25T09:08:44.574Z,56.15
2022-08-25T09:09:45.419Z,54.52
2022-08-25T09:10:43.915Z,54.10
2022-08-25T09:11:44.085Z,52.86
2022-08-25T09:12:48.190Z,53.89
2022-08-25T09:13:43.805Z,54.14
2022-08-25T09:14:43.788Z,55.80
2022-08-25T09:15:43.835Z,52.95
2022-08-25T09:16:43.814Z,51.64
2022-08-25T09:17:44.732Z,50.71
2022-08-25T09:18:50.876Z,50.12
2022-08-25T09:19:44.895Z,51.62
2022-08-25T09:20:43.746Z,52.06
2022-08-25T09:21:43.767Z,53.89
2022-08-25T09:22:43.754Z,54.42
2022-08-25T09:23:43.750Z,54.17
2022-08-25T09:24:43.719Z,54.17
2022-08-25T09:25:53.193Z,54.12
2022-08-25T09:26:44.709Z,54.94
2022-08-25T09:27:43.695Z,54.29
2022-08-25T09:28:43.735Z,52.95
2022-08-25T09:29:43.688Z,52.04
2022-08-25T09:30:43.855Z,52.21
2022-08-25T09:31:43.739Z,51.23
2022-08-25T09:32:47.447Z,52.53
2022-08-25T09:33:44.664Z,53.22
2022-08-25T09:34:43.646Z,53.69
2022-08-25T09:35:43.647Z,50.68
2022-08-25T09:36:43.657Z,50.29
2022-08-25T09:37:43.620Z,51.42
2022-08-25T09:38:43.706Z,52.53
2022-08-25T09:39:43.625Z,52.88
2022-08-25T09:40:43.585Z,53.38
2022-08-25T09:41:43.621Z,53.67
2022-08-25T09:42:43.585Z,53.45
2022-08-25T09:43:43.568Z,52.66
2022-08-25T09:44:43.626Z,52.44
2022-08-25T09:45:43.567Z,52.63
2022-08-25T09:46:43.636Z,52.70
2022-08-25T09:47:43.591Z,51.99
2022-08-25T09:48:43.546Z,52.98
2022-08-25T09:49:43.531Z,52.63
2022-08-25T09:50:46.771Z,49.87
2022-08-25T09:51:43.521Z,51.40
2022-08-25T09:52:44.283Z,51.97
2022-08-25T09:53:45.302Z,51.57
2022-08-25T09:54:46.898Z,50.54
2022-08-25T09:55:43.485Z,51.03
2022-08-25T09:56:43.473Z,50.46
2022-08-25T09:57:43.470Z,51.59
2022-08-25T09:58:43.450Z,51.52
2022-08-25T09:59:57.215Z,54.07
2022-08-25T10:00:44.437Z,54.86
2022-08-25T10:01:43.459Z,54.17
2022-08-25T10:02:43.442Z,53.89
2022-08-25T10:03:43.428Z,51.67
2022-08-25T10:04:43.458Z,52.14
2022-08-25T10:05:43.394Z,51.75
2022-08-25T10:06:43.413Z,50.36
2022-08-25T10:07:43.397Z,51.03
2022-08-25T10:08:43.376Z,50.41
2022-08-25T10:09:43.392Z,49.82
2022-08-25T10:10:43.349Z,49.92
2022-08-25T10:11:43.624Z,51.57
2022-08-25T10:12:43.376Z,53.57
2022-08-25T10:13:43.355Z,51.67
2022-08-25T10:14:44.598Z,51.97
2022-08-25T10:15:43.342Z,52.61
2022-08-25T10:16:47.000Z,52.91
2022-08-25T10:17:43.324Z,52.61
2022-08-25T10:18:43.284Z,53.60
2022-08-25T10:19:43.286Z,52.41
2022-08-25T10:20:44.571Z,52.12
2022-08-25T10:21:43.595Z,52.31
2022-08-25T10:22:43.266Z,53.13
2022-08-25T10:23:43.293Z,53.03
2022-08-25T10:24:44.120Z,53.63
2022-08-25T10:25:43.241Z,53.25
2022-08-25T10:26:44.217Z,53.00
2022-08-25T10:27:43.238Z,51.54
2022-08-25T10:28:43.218Z,50.34
2022-08-25T10:29:43.202Z,49.60
2022-08-25T10:30:43.257Z,48.88
2022-08-25T10:31:43.184Z,48.76
2022-08-25T10:32:43.186Z,48.32
2022-08-25T10:33:43.183Z,48.22
2022-08-25T10:34:44.362Z,49.74
2022-08-25T10:35:43.152Z,50.34
2022-08-25T10:36:47.055Z,51.54
2022-08-25T10:37:43.187Z,51.42
2022-08-25T10:38:43.339Z,51.84
2022-08-25T10:39:43.113Z,52.26
2022-08-25T10:40:43.142Z,52.98
2022-08-25T10:41:43.146Z,52.58
2022-08-25T10:42:43.090Z,52.61
2022-08-25T10:43:43.190Z,49.74
2022-08-25T10:44:43.131Z,50.21
2022-08-25T10:45:43.074Z,51.84
2022-08-25T10:46:43.207Z,52.34
2022-08-25T10:47:43.076Z,53.38
2022-08-25T10:48:43.050Z,52.51
2022-08-25T10:49:43.057Z,52.71
2022-08-25T10:50:45.429Z,53.22
2022-08-25T10:51:43.083Z,51.37
2022-08-25T10:52:43.071Z,48.47
2022-08-25T10:53:43.045Z,48.22
2022-08-25T10:54:42.990Z,47.53
2022-08-25T10:55:43.003Z,49.01
2022-08-25T10:56:43.134Z,50.54
2022-08-25T10:57:42.987Z,51.25
2022-08-25T10:58:42.961Z,51.05
2022-08-25T10:59:42.979Z,49.77
2022-08-25T11:00:48.149Z,49.94
2022-08-25T11:01:44.641Z,49.43
2022-08-25T11:02:42.955Z,50.63
2022-08-25T11:03:42.993Z,48.96
2022-08-25T11:04:42.948Z,50.26
2022-08-25T11:05:42.917Z,49.67
2022-08-25T11:06:42.893Z,49.74
2022-08-25T11:07:42.892Z,49.30
2022-08-25T11:08:43.023Z,47.19
2022-08-25T11:09:42.871Z,47.70
2022-08-25T11:10:42.937Z,48.81
2022-08-25T11:11:42.847Z,49.06
2022-08-25T11:12:42.847Z,47.53
2022-08-25T11:13:43.168Z,47.92
2022-08-25T11:14:42.830Z,48.22
2022-08-25T11:15:54.813Z,48.61
2022-08-25T11:16:43.849Z,48.79
2022-08-25T11:17:42.834Z,47.66
2022-08-25T11:18:43.337Z,45.74
2022-08-25T11:19:42.795Z,45.03
2022-08-25T11:20:42.792Z,45.27
2022-08-25T11:21:42.773Z,44.36
2022-08-25T11:22:42.769Z,45.54
2022-08-25T11:23:42.778Z,44.52
2022-08-25T11:24:42.773Z,45.94
2022-08-25T11:25:42.787Z,48.07
2022-08-25T11:26:42.794Z,49.62
2022-08-25T11:27:42.755Z,50.71
2022-08-25T11:28:42.724Z,49.69
2022-08-25T11:29:42.719Z,50.02
2022-08-25T11:30:42.732Z,49.67
2022-08-25T11:31:42.701Z,49.18
2022-08-25T11:32:42.705Z,49.16
2022-08-25T11:33:42.674Z,49.77
2022-08-25T11:34:43.842Z,50.93
2022-08-25T11:35:42.741Z,50.90
2022-08-25T11:36:42.712Z,50.51
2022-08-25T11:37:42.657Z,50.59
2022-08-25T11:38:42.654Z,50.41
2022-08-25T11:39:43.649Z,50.31
2022-08-25T11:40:42.631Z,50.49
2022-08-25T11:41:42.607Z,50.73
2022-08-25T11:42:42.606Z,49.82
2022-08-25T11:43:42.709Z,50.34
2022-08-25T11:44:53.580Z,51.75
2022-08-25T11:45:43.621Z,51.18
2022-08-25T11:46:42.614Z,51.57
2022-08-25T11:47:42.627Z,51.15
2022-08-25T11:48:42.544Z,51.84
2022-08-25T11:49:42.563Z,50.95
2022-08-25T11:50:42.536Z,50.46
2022-08-25T11:51:42.539Z,50.63
2022-08-25T11:52:42.518Z,51.30
2022-08-25T11:55:09.323Z,49.55
2022-08-25T11:56:08.241Z,49.08
2022-08-25T11:57:08.224Z,49.38
2022-08-25T11:58:08.582Z,50.36
2022-08-25T11:59:08.212Z,50.49
2022-08-25T12:00:08.266Z,49.72
2022-08-25T12:01:08.208Z,50.09
2022-08-25T12:02:08.197Z,49.48
2022-08-25T12:03:08.197Z,49.40
2022-08-25T12:04:08.238Z,48.71
2022-08-25T12:05:08.323Z,49.06
2022-08-25T12:06:08.251Z,50.21
2022-08-25T12:07:08.154Z,49.65
2022-08-25T12:08:08.150Z,48.86
2022-08-25T12:09:08.171Z,48.17
2022-08-25T12:10:08.156Z,50.16
2022-08-25T12:11:11.180Z,48.96
2022-08-25T12:12:08.161Z,48.76
2022-08-25T12:13:10.510Z,49.38
2022-08-25T12:14:08.135Z,49.10
2022-08-25T12:15:08.256Z,49.22
2022-08-25T12:16:08.158Z,49.65
2022-08-25T12:17:10.137Z,50.14
2022-08-25T12:18:08.575Z,49.72
2022-08-25T12:19:08.069Z,50.38
2022-08-25T12:20:08.057Z,49.18
2022-08-25T12:21:08.062Z,49.16
2022-08-25T12:22:08.059Z,48.64
2022-08-25T12:23:08.057Z,48.57
2022-08-25T12:24:08.056Z,49.16
2022-08-25T12:25:08.020Z,49.06
2022-08-25T12:26:08.005Z,49.26
2022-08-25T12:27:08.005Z,48.86
2022-08-25T12:28:09.411Z,49.01
2022-08-25T12:29:07.980Z,48.83
2022-08-25T12:30:08.014Z,48.54
2022-08-25T12:31:08.030Z,48.57
2022-08-25T12:32:09.374Z,49.20
2022-08-25T12:33:07.950Z,49.84
2022-08-25T12:34:08.013Z,48.83
2022-08-25T12:35:07.947Z,49.05
2022-08-25T12:36:07.970Z,49.99
2022-08-25T12:37:07.983Z,49.15
2022-08-25T12:38:08.216Z,49.74
2022-08-25T12:39:07.914Z,48.86
2022-08-25T12:40:08.013Z,48.44
2022-08-25T12:41:07.897Z,49.10
2022-08-25T12:42:07.959Z,47.68
2022-08-25T12:43:07.880Z,47.48
2022-08-25T12:44:07.890Z,47.14
2022-08-25T12:45:07.886Z,45.84
2022-08-25T12:46:07.910Z,46.01
2022-08-25T12:47:07.881Z,45.67
2022-08-25T12:48:07.841Z,49.04
2022-08-25T12:49:07.832Z,46.94
2022-08-25T12:50:07.830Z,47.04
2022-08-25T12:51:07.827Z,47.34
2022-08-25T12:52:07.885Z,46.25
2022-08-25T12:53:07.827Z,45.86
2022-08-25T12:54:10.472Z,45.84